Time;durP1;ratioP1;P1;durP2;ratioP2;P2;SDS_P1;SDS_P2;PMS_P1;PMS_P2;Temp;Humidity;BMP_temperature;BMP_pressure;BME280_temperature;BME280_humidity;BME280_pressure;Samples;Min_cycle;Max_cycle;Signal;HPM_P1;HPM_P2
2023/09/29 00:00:50;;;;;;;5.17;2.20;;;15.90;99.90;;;;;;6184245;23;20158;-87
2023/09/29 00:03:16;;;;;;;6.77;2.77;;;15.90;99.90;;;;;;6159670;23;20198;-87
2023/09/29 00:05:45;;;;;;;8.87;2.63;;;16.00;99.90;;;;;;6159507;23;20196;-87
2023/09/29 00:08:16;;;;;;;3.03;2.43;;;16.00;99.90;;;;;;6208754;23;20285;-87
2023/09/29 00:10:45;;;;;;;4.83;1.90;;;16.00;99.90;;;;;;6184922;23;20662;-89
2023/09/29 00:13:11;;;;;;;5.93;2.87;;;16.10;99.90;;;;;;6159796;23;20509;-90
2023/09/29 00:15:38;;;;;;;4.03;2.27;;;16.10;99.90;;;;;;6184263;23;20201;-90
2023/09/29 00:18:05;;;;;;;6.77;2.67;;;16.20;99.90;;;;;;6184277;23;20593;-88
2023/09/29 00:20:31;;;;;;;6.60;2.03;;;16.20;99.90;;;;;;6159317;23;20638;-87
2023/09/29 00:22:58;;;;;;;5.17;1.53;;;16.20;99.90;;;;;;6159215;23;20201;-87
2023/09/29 00:25:25;;;;;;;2.67;2.33;;;16.20;99.90;;;;;;6209724;23;20162;-87
2023/09/29 00:27:51;;;;;;;6.03;1.80;;;16.20;99.90;;;;;;6160124;23;20168;-88
2023/09/29 00:30:17;;;;;;;6.87;2.93;;;16.20;99.90;;;;;;6183931;23;20300;-88
2023/09/29 00:32:45;;;;;;;6.40;3.17;;;16.20;99.90;;;;;;6184330;23;20653;-88
2023/09/29 00:35:11;;;;;;;6.37;2.07;;;16.10;99.90;;;;;;6184007;23;20197;-88
2023/09/29 00:37:37;;;;;;;1.80;1.67;;;16.20;99.90;;;;;;6208738;23;20205;-87
2023/09/29 00:40:12;;;;;;;8.27;2.10;;;16.10;99.90;;;;;;6160508;23;20288;-90
2023/09/29 00:42:39;;;;;;;3.57;2.83;;;16.10;99.90;;;;;;6163104;23;20185;-90
2023/09/29 00:45:06;;;;;;;6.57;1.90;;;16.10;99.90;;;;;;6233710;23;20205;-88
2023/09/29 00:47:32;;;;;;;3.97;1.83;;;16.10;99.90;;;;;;6159633;23;20387;-88
2023/09/29 00:49:59;;;;;;;8.03;2.83;;;16.20;99.90;;;;;;6159252;23;20202;-88
2023/09/29 00:52:27;;;;;;;18.67;2.73;;;16.10;99.90;;;;;;6184173;23;20162;-87
2023/09/29 00:54:53;;;;;;;2.77;2.07;;;16.20;99.90;;;;;;6160594;23;20170;-88
2023/09/29 00:57:20;;;;;;;7.70;3.07;;;16.20;99.90;;;;;;6183527;23;20209;-90
2023/09/29 00:59:46;;;;;;;6.07;2.20;;;16.20;99.90;;;;;;6208779;23;20202;-88
2023/09/29 01:02:14;;;;;;;6.27;2.37;;;16.10;99.90;;;;;;6159095;23;20742;-89
2023/09/29 01:04:40;;;;;;;6.73;3.30;;;16.20;99.90;;;;;;6184235;23;20196;-89
2023/09/29 01:07:08;;;;;;;10.60;2.60;;;16.20;99.90;;;;;;6184192;23;20167;-88
2023/09/29 01:09:33;;;;;;;5.63;2.37;;;16.20;99.90;;;;;;6159173;23;20197;-89
2023/09/29 01:12:04;;;;;;;7.33;2.27;;;16.20;99.90;;;;;;6159302;23;20746;-89
2023/09/29 01:14:30;;;;;;;3.83;2.93;;;16.20;99.90;;;;;;6184899;23;20202;-88
2023/09/29 01:16:56;;;;;;;7.43;2.17;;;16.20;99.90;;;;;;6159110;23;20584;-89
2023/09/29 01:19:22;;;;;;;6.90;2.70;;;16.20;99.90;;;;;;6158593;23;20158;-88
2023/09/29 01:21:48;;;;;;;7.40;2.50;;;16.20;99.90;;;;;;6209606;23;20146;-88
2023/09/29 01:24:14;;;;;;;3.23;2.30;;;16.20;99.90;;;;;;6159106;23;20198;-88
2023/09/29 01:26:44;;;;;;;4.10;2.33;;;16.10;99.90;;;;;;6159155;23;20225;-88
2023/09/29 01:29:11;;;;;;;9.40;2.53;;;16.10;99.90;;;;;;6183682;23;20670;-88
2023/09/29 01:31:37;;;;;;;7.20;2.83;;;16.10;99.90;;;;;;6158702;23;20670;-90
2023/09/29 01:34:04;;;;;;;5.17;1.90;;;16.10;99.90;;;;;;6160069;23;20185;-90
2023/09/29 01:36:30;;;;;;;4.23;2.17;;;16.10;99.90;;;;;;6158713;23;20669;-90
2023/09/29 01:38:56;;;;;;;8.93;3.67;;;16.10;99.90;;;;;;6234225;23;20198;-90
2023/09/29 01:41:22;;;;;;;6.07;2.83;;;16.10;99.90;;;;;;6183238;23;20265;-90
2023/09/29 01:43:48;;;;;;;5.77;1.97;;;16.10;99.90;;;;;;6184133;23;20256;-90
2023/09/29 01:46:17;;;;;;;7.83;2.40;;;16.20;99.90;;;;;;6183885;23;20165;-89
2023/09/29 01:48:43;;;;;;;2.57;1.50;;;16.10;99.90;;;;;;6185239;23;20682;-90
2023/09/29 01:51:09;;;;;;;5.40;2.30;;;16.10;99.90;;;;;;6183206;23;20193;-90
2023/09/29 01:53:35;;;;;;;4.50;1.87;;;16.10;99.90;;;;;;6158578;23;20201;-90
2023/09/29 01:56:02;;;;;;;9.67;2.87;;;16.20;99.90;;;;;;6208021;23;20217;-90
2023/09/29 01:58:27;;;;;;;5.53;2.47;;;16.20;99.90;;;;;;6208231;23;20276;-90
2023/09/29 02:00:54;;;;;;;3.80;1.60;;;16.20;99.90;;;;;;6159429;23;20829;-89
2023/09/29 02:03:21;;;;;;;2.73;2.03;;;16.10;99.90;;;;;;6182842;23;20232;-89
2023/09/29 02:05:47;;;;;;;5.70;2.27;;;16.20;99.90;;;;;;6208370;23;20197;-89
2023/09/29 02:08:13;;;;;;;3.33;1.50;;;16.20;99.90;;;;;;6183145;23;20205;-90
2023/09/29 02:10:39;;;;;;;4.43;1.93;;;16.10;99.90;;;;;;6207836;23;21125;-89
2023/09/29 02:13:05;;;;;;;7.90;2.40;;;16.10;99.90;;;;;;6208489;23;20176;-90
2023/09/29 02:15:34;;;;;;;10.97;3.30;;;16.10;99.90;;;;;;6209048;23;20658;-89
2023/09/29 02:18:11;;;;;;;4.70;1.60;;;16.00;99.90;;;;;;6158999;23;20213;-89
2023/09/29 02:20:42;;;;;;;5.73;2.17;;;16.00;99.90;;;;;;6183565;23;20197;-89
2023/09/29 02:23:08;;;;;;;2.90;1.70;;;16.00;99.90;;;;;;6184366;23;20209;-89
2023/09/29 02:25:34;;;;;;;3.30;1.87;;;16.10;99.90;;;;;;6184723;23;20186;-89
2023/09/29 02:28:02;;;;;;;4.10;2.00;;;16.10;99.90;;;;;;6185643;23;20607;-89
2023/09/29 02:30:29;;;;;;;8.37;1.80;;;16.10;99.90;;;;;;6160921;23;20221;-89
2023/09/29 02:32:56;;;;;;;6.43;3.07;;;16.10;99.90;;;;;;6209824;23;20246;-89
2023/09/29 02:35:22;;;;;;;7.57;2.57;;;16.10;99.90;;;;;;6184831;23;20206;-89
2023/09/29 02:37:48;;;;;;;10.70;2.20;;;16.10;99.90;;;;;;6185035;23;20202;-89
2023/09/29 02:40:15;;;;;;;3.40;1.70;;;16.10;99.90;;;;;;6209811;23;20196;-89
2023/09/29 02:42:43;;;;;;;3.37;1.83;;;16.10;99.90;;;;;;6210650;23;20639;-89
2023/09/29 02:45:09;;;;;;;4.13;1.63;;;16.10;99.90;;;;;;6185368;23;20206;-90
2023/09/29 02:47:41;;;;;;;8.57;2.10;;;16.10;99.90;;;;;;6209807;23;20198;-89
2023/09/29 02:50:12;;;;;;;4.40;2.23;;;16.10;99.90;;;;;;6209235;23;20221;-89
2023/09/29 02:52:39;;;;;;;2.80;1.50;;;16.20;99.90;;;;;;6184878;23;20876;-89
2023/09/29 02:55:07;;;;;;;14.40;2.23;;;16.20;99.90;;;;;;6185604;23;20838;-90
2023/09/29 02:57:33;;;;;;;2.00;1.60;;;16.20;99.90;;;;;;6208848;23;20210;-89
2023/09/29 02:59:59;;;;;;;3.33;1.50;;;16.30;99.90;;;;;;6184408;23;20655;-89
2023/09/29 03:02:25;;;;;;;3.07;1.50;;;16.30;99.90;;;;;;6160033;23;20197;-89
2023/09/29 03:04:51;;;;;;;3.50;2.07;;;16.30;99.90;;;;;;6159527;23;20194;-88
2023/09/29 03:07:17;;;;;;;6.13;2.13;;;16.30;99.90;;;;;;6160600;23;20158;-89
2023/09/29 03:09:43;;;;;;;2.73;1.63;;;16.30;99.90;;;;;;6235662;23;20170;-89
2023/09/29 03:12:09;;;;;;;3.20;1.53;;;16.40;99.90;;;;;;6185018;23;20533;-89
2023/09/29 03:14:35;;;;;;;2.20;1.97;;;16.40;99.90;;;;;;6159898;23;20710;-89
2023/09/29 03:17:01;;;;;;;4.57;2.83;;;16.40;99.90;;;;;;6184278;23;20248;-90
2023/09/29 03:19:27;;;;;;;3.93;1.63;;;16.40;99.90;;;;;;6185002;23;20242;-90
2023/09/29 03:21:53;;;;;;;4.53;2.10;;;16.40;99.90;;;;;;6161103;23;20452;-89
2023/09/29 03:24:19;;;;;;;2.03;1.40;;;16.50;99.90;;;;;;6184289;23;20263;-90
2023/09/29 03:26:45;;;;;;;3.37;1.97;;;16.50;99.90;;;;;;6184293;23;20194;-89
2023/09/29 03:29:11;;;;;;;2.30;1.53;;;16.50;99.90;;;;;;6159424;23;20201;-89
2023/09/29 03:31:36;;;;;;;2.60;1.70;;;16.60;99.90;;;;;;6160327;23;20221;-90
2023/09/29 03:34:02;;;;;;;3.57;1.57;;;16.60;99.90;;;;;;6185663;23;20583;-90
2023/09/29 03:36:30;;;;;;;9.03;1.73;;;16.60;99.90;;;;;;6184472;23;20206;-89
2023/09/29 03:38:56;;;;;;;4.27;1.43;;;16.60;99.90;;;;;;6208980;23;20202;-90
2023/09/29 03:41:23;;;;;;;3.80;1.63;;;16.70;99.90;;;;;;6160403;23;20292;-89
2023/09/29 03:43:50;;;;;;;3.63;1.47;;;16.70;99.90;;;;;;6185551;23;21040;-89
2023/09/29 03:46:20;;;;;;;5.47;2.37;;;16.70;99.90;;;;;;6159218;23;20159;-89
2023/09/29 03:48:47;;;;;;;4.83;1.70;;;16.80;99.90;;;;;;6210038;23;20619;-88
2023/09/29 03:51:23;;;;;;;3.67;1.30;;;16.80;99.90;;;;;;6184113;23;20599;-89
2023/09/29 03:53:58;;;;;;;2.43;1.57;;;16.80;99.90;;;;;;6184187;23;20209;-89
2023/09/29 03:56:23;;;;;;;2.30;1.47;;;16.90;99.90;;;;;;6183899;23;20197;-89
2023/09/29 03:58:50;;;;;;;3.40;1.73;;;16.90;99.90;;;;;;6159155;23;20190;-89
2023/09/29 04:01:17;;;;;;;7.77;2.53;;;16.90;99.90;;;;;;6208851;23;20165;-89
2023/09/29 04:03:42;;;;;;;3.80;1.30;;;16.90;99.90;;;;;;6160041;23;20525;-89
2023/09/29 04:06:09;;;;;;;3.23;2.23;;;16.90;99.90;;;;;;6183696;23;20221;-89
2023/09/29 04:08:35;;;;;;;5.00;2.07;;;16.80;99.90;;;;;;6159306;23;20194;-89
2023/09/29 04:11:01;;;;;;;6.60;1.30;;;16.90;99.90;;;;;;6183971;23;20247;-89
2023/09/29 04:13:26;;;;;;;2.13;1.30;;;16.80;99.90;;;;;;6184052;23;20162;-89
2023/09/29 04:15:52;;;;;;;4.87;2.10;;;16.80;99.90;;;;;;6185053;23;20158;-89
2023/09/29 04:18:18;;;;;;;7.10;2.50;;;16.80;99.90;;;;;;6208674;23;20198;-89
2023/09/29 04:20:44;;;;;;;3.20;1.83;;;16.80;99.90;;;;;;6184428;23;20198;-89
2023/09/29 04:23:09;;;;;;;6.20;2.43;;;16.90;99.90;;;;;;6183616;23;20229;-89
2023/09/29 04:25:35;;;;;;;4.93;2.20;;;16.90;99.90;;;;;;6184126;23;20198;-89
2023/09/29 04:28:01;;;;;;;5.07;2.63;;;16.80;99.90;;;;;;6184697;23;20170;-90
2023/09/29 04:30:27;;;;;;;4.00;2.37;;;16.80;99.90;;;;;;6159010;23;20198;-88
2023/09/29 04:32:53;;;;;;;7.90;2.43;;;16.70;99.90;;;;;;6209713;23;20360;-91
2023/09/29 04:35:18;;;;;;;12.40;3.77;;;16.70;99.90;;;;;;6184736;23;20206;-90
2023/09/29 04:37:45;;;;;;;7.13;2.73;;;16.60;99.90;;;;;;6209111;23;20295;-90
2023/09/29 04:40:11;;;;;;;10.67;2.67;;;16.60;99.90;;;;;;6208306;23;20165;-90
2023/09/29 04:42:38;;;;;;;4.17;1.43;;;16.50;99.90;;;;;;6184967;23;20162;-90
2023/09/29 04:45:06;;;;;;;4.20;3.50;;;16.50;99.90;;;;;;6208787;23;21000;-90
2023/09/29 04:47:32;;;;;;;6.70;2.50;;;16.50;99.90;;;;;;6183550;23;20206;-91
2023/09/29 04:49:58;;;;;;;5.63;3.43;;;16.50;99.90;;;;;;6183699;23;20190;-91
2023/09/29 04:52:25;;;;;;;5.30;2.03;;;16.40;99.90;;;;;;6234260;23;20166;-91
2023/09/29 04:54:51;;;;;;;6.87;1.90;;;16.30;99.90;;;;;;6160038;23;20165;-92
2023/09/29 04:57:17;;;;;;;4.73;1.60;;;16.30;99.90;;;;;;6159325;23;20202;-91
2023/09/29 04:59:42;;;;;;;6.67;1.70;;;16.20;99.90;;;;;;6159827;23;20589;-91
2023/09/29 05:02:11;;;;;;;3.90;2.40;;;16.20;99.90;;;;;;6161940;23;20252;-91
2023/09/29 05:04:37;;;;;;;5.73;1.40;;;16.20;99.90;;;;;;6184788;23;20221;-91
2023/09/29 05:07:03;;;;;;;4.93;2.30;;;16.20;99.90;;;;;;6160960;23;20162;-91
2023/09/29 05:09:28;;;;;;;3.13;1.83;;;16.20;99.90;;;;;;6158500;23;20202;-91
2023/09/29 05:11:54;;;;;;;3.07;1.80;;;16.20;99.90;;;;;;6159206;23;20213;-91
2023/09/29 05:14:20;;;;;;;3.93;1.57;;;16.20;99.90;;;;;;6234068;23;20261;-91
2023/09/29 05:16:47;;;;;;;4.27;2.53;;;16.20;99.90;;;;;;6158842;23;20684;-91
2023/09/29 05:19:13;;;;;;;5.67;2.13;;;16.20;99.90;;;;;;6159607;23;20168;-92
2023/09/29 05:21:39;;;;;;;8.70;1.90;;;16.20;99.90;;;;;;6159855;23;20221;-91
2023/09/29 05:24:05;;;;;;;6.00;2.50;;;16.30;99.90;;;;;;6159419;23;20713;-92
2023/09/29 05:26:31;;;;;;;4.80;1.33;;;16.30;99.90;;;;;;6159503;23;20779;-92
2023/09/29 05:28:59;;;;;;;9.10;2.67;;;16.30;99.90;;;;;;6159620;23;20189;-92
2023/09/29 05:31:25;;;;;;;3.17;2.87;;;16.30;99.90;;;;;;6161358;23;20211;-92
2023/09/29 05:33:53;;;;;;;3.93;1.20;;;16.30;99.90;;;;;;6185383;23;20186;-91
2023/09/29 05:36:21;;;;;;;6.17;2.67;;;16.40;99.90;;;;;;6160965;23;20651;-90
2023/09/29 05:38:47;;;;;;;5.43;2.70;;;16.40;99.90;;;;;;6210266;23;20201;-91
2023/09/29 05:41:13;;;;;;;4.83;1.97;;;16.40;99.90;;;;;;6160081;23;20212;-90
2023/09/29 05:43:38;;;;;;;2.63;1.60;;;16.40;99.90;;;;;;6159093;23;20198;-91
2023/09/29 05:46:04;;;;;;;5.67;2.00;;;16.40;99.90;;;;;;6159724;23;20175;-91
2023/09/29 05:48:30;;;;;;;4.50;3.10;;;16.40;99.90;;;;;;6183684;23;20595;-91
2023/09/29 05:50:56;;;;;;;15.00;2.27;;;16.40;99.90;;;;;;6158638;23;20198;-91
2023/09/29 05:53:21;;;;;;;7.23;2.53;;;16.40;99.90;;;;;;6158693;23;20213;-90
2023/09/29 05:55:48;;;;;;;7.03;1.90;;;16.40;99.90;;;;;;6183802;23;20248;-90
2023/09/29 05:58:14;;;;;;;7.00;2.57;;;16.40;99.90;;;;;;6234692;23;20185;-91
2023/09/29 06:00:40;;;;;;;4.40;2.50;;;16.40;99.90;;;;;;6187555;23;20555;-91
2023/09/29 06:03:05;;;;;;;3.87;2.77;;;16.40;99.90;;;;;;6186973;23;20277;-90
2023/09/29 06:05:31;;;;;;;5.17;2.37;;;16.50;99.90;;;;;;6161419;23;20202;-89
2023/09/29 06:07:57;;;;;;;9.63;3.07;;;16.50;99.90;;;;;;6210770;23;20224;-90
2023/09/29 06:10:23;;;;;;;4.17;2.73;;;16.60;99.90;;;;;;6186364;23;20213;-90
2023/09/29 06:12:49;;;;;;;4.53;3.00;;;16.50;99.90;;;;;;6186107;23;20169;-92
2023/09/29 06:15:15;;;;;;;10.00;1.60;;;16.60;99.90;;;;;;6160176;23;20202;-90
2023/09/29 06:17:40;;;;;;;9.57;2.70;;;16.60;99.90;;;;;;6185543;23;20224;-90
2023/09/29 06:20:07;;;;;;;3.73;3.20;;;16.60;99.90;;;;;;6162169;23;20208;-91
2023/09/29 06:22:34;;;;;;;6.37;2.60;;;16.70;99.90;;;;;;6164864;23;20227;-90
2023/09/29 06:25:00;;;;;;;10.80;3.07;;;16.70;99.90;;;;;;6187350;23;20159;-90
2023/09/29 06:27:27;;;;;;;5.80;2.60;;;16.80;99.90;;;;;;6238082;23;20201;-89
2023/09/29 06:29:53;;;;;;;5.33;2.00;;;16.80;99.90;;;;;;6162613;23;20197;-90
2023/09/29 06:32:19;;;;;;;4.70;2.20;;;16.90;99.90;;;;;;6185570;23;20240;-90
2023/09/29 06:34:45;;;;;;;7.63;2.30;;;17.00;99.90;;;;;;6211421;23;20526;-90
2023/09/29 06:37:11;;;;;;;5.93;1.93;;;17.00;99.90;;;;;;6186325;23;20196;-89
2023/09/29 06:39:37;;;;;;;4.90;2.10;;;17.00;99.90;;;;;;6212551;23;20177;-90
2023/09/29 06:42:03;;;;;;;2.30;1.77;;;17.10;99.90;;;;;;6185312;23;20228;-90
2023/09/29 06:44:30;;;;;;;8.97;2.13;;;17.20;99.90;;;;;;6185842;23;20965;-90
2023/09/29 06:46:56;;;;;;;9.57;2.10;;;17.20;99.90;;;;;;6185752;23;20198;-90
2023/09/29 06:49:22;;;;;;;4.27;2.50;;;17.20;99.90;;;;;;6161113;23;20165;-90
2023/09/29 06:51:48;;;;;;;3.03;1.70;;;17.30;99.90;;;;;;6186403;23;20512;-91
2023/09/29 06:54:14;;;;;;;6.30;2.23;;;17.30;99.90;;;;;;6160950;23;20285;-90
2023/09/29 06:56:40;;;;;;;2.13;1.70;;;17.30;99.90;;;;;;6184761;23;20260;-91
2023/09/29 06:59:07;;;;;;;3.97;2.83;;;17.40;99.90;;;;;;6184743;23;20202;-91
2023/09/29 07:01:34;;;;;;;3.97;2.17;;;17.50;99.90;;;;;;6185253;23;20190;-91
2023/09/29 07:04:00;;;;;;;3.93;1.80;;;17.60;99.90;;;;;;6185778;23;20689;-91
2023/09/29 07:06:25;;;;;;;4.67;1.97;;;17.60;99.90;;;;;;6184702;23;20197;-92
2023/09/29 07:08:51;;;;;;;3.40;2.10;;;17.60;99.90;;;;;;6160045;23;20194;-90
2023/09/29 07:11:18;;;;;;;5.80;2.30;;;17.70;99.90;;;;;;6184477;23;20386;-91
2023/09/29 07:13:43;;;;;;;2.60;2.10;;;17.70;99.90;;;;;;6185184;23;20243;-90
2023/09/29 07:16:09;;;;;;;4.67;2.00;;;17.80;99.90;;;;;;6160397;23;20572;-88
2023/09/29 07:18:35;;;;;;;4.53;2.10;;;17.90;99.90;;;;;;6185716;23;20193;-92
2023/09/29 07:21:01;;;;;;;7.83;2.10;;;17.90;99.90;;;;;;6160557;23;20202;-91
2023/09/29 07:23:30;;;;;;;3.67;1.87;;;18.00;99.90;;;;;;6160013;23;20745;-91
2023/09/29 07:25:56;;;;;;;4.93;2.40;;;18.10;99.90;;;;;;6185256;23;20200;-90
2023/09/29 07:28:21;;;;;;;2.57;2.10;;;18.20;99.90;;;;;;6209926;23;20668;-90
2023/09/29 07:30:48;;;;;;;3.67;1.37;;;18.20;99.90;;;;;;6185269;23;20162;-89
2023/09/29 07:33:13;;;;;;;4.20;1.93;;;18.20;99.90;;;;;;6209798;23;20643;-91
2023/09/29 07:35:43;;;;;;;5.23;1.97;;;18.20;99.90;;;;;;6210263;23;20293;-91
2023/09/29 07:38:08;;;;;;;7.10;2.10;;;18.40;99.90;;;;;;6209863;23;20229;-90
2023/09/29 07:40:37;;;;;;;3.07;2.07;;;18.50;99.90;;;;;;6184423;23;20236;-91
2023/09/29 07:43:04;;;;;;;6.67;2.17;;;18.60;99.90;;;;;;6211264;23;20158;-92
2023/09/29 07:45:31;;;;;;;2.73;1.83;;;18.70;99.90;;;;;;6211023;23;20201;-92
2023/09/29 07:47:57;;;;;;;5.90;1.93;;;18.80;99.90;;;;;;6210811;23;20225;-92
2023/09/29 07:50:23;;;;;;;3.73;2.17;;;18.90;99.90;;;;;;6160692;23;20194;-92
2023/09/29 07:52:49;;;;;;;4.07;1.97;;;19.10;99.90;;;;;;6160449;23;20693;-91
2023/09/29 07:55:15;;;;;;;2.97;1.77;;;19.20;99.90;;;;;;6185268;23;20168;-93
2023/09/29 07:57:40;;;;;;;4.27;1.90;;;19.30;99.90;;;;;;6162466;23;20190;-92
2023/09/29 08:00:10;;;;;;;2.07;1.77;;;19.40;99.90;;;;;;6211000;23;20198;-92
2023/09/29 08:02:35;;;;;;;3.67;2.07;;;19.50;99.90;;;;;;6162642;23;20204;-91
2023/09/29 08:05:02;;;;;;;6.37;2.20;;;19.60;99.90;;;;;;6210722;23;20193;-93
2023/09/29 08:07:28;;;;;;;3.90;2.13;;;19.70;99.90;;;;;;6210701;23;20158;-92
2023/09/29 08:09:56;;;;;;;4.23;2.10;;;19.80;99.90;;;;;;6161793;23;20202;-92
2023/09/29 08:12:22;;;;;;;8.47;2.33;;;19.90;99.90;;;;;;6187177;23;20260;-92
2023/09/29 08:14:48;;;;;;;4.97;2.30;;;20.00;99.90;;;;;;6186556;23;20964;-93
2023/09/29 08:17:13;;;;;;;2.50;2.10;;;20.40;99.90;;;;;;6161252;23;20251;-92
2023/09/29 08:19:39;;;;;;;4.10;1.93;;;20.90;99.90;;;;;;6186676;23;20214;-92
2023/09/29 08:22:05;;;;;;;3.90;1.80;;;21.20;99.90;;;;;;6187325;23;20687;-92
2023/09/29 08:24:32;;;;;;;7.70;1.97;;;21.50;99.90;;;;;;6186968;23;20194;-92
2023/09/29 08:27:04;;;;;;;5.33;2.27;;;21.90;99.90;;;;;;6186303;23;20655;-93
2023/09/29 08:29:29;;;;;;;2.93;1.83;;;22.10;99.90;;;;;;6186765;23;20210;-91
2023/09/29 08:31:58;;;;;;;2.67;2.40;;;22.10;99.90;;;;;;6161083;23;20205;-92
2023/09/29 08:34:24;;;;;;;2.20;1.47;;;22.00;99.90;;;;;;6186565;23;20165;-92
2023/09/29 08:36:52;;;;;;;2.50;1.70;;;21.90;99.90;;;;;;6186811;23;20174;-92
2023/09/29 08:39:17;;;;;;;8.98;2.00;;;22.10;99.90;;;;;;6185647;23;20671;-91
2023/09/29 08:41:59;;;;;;;2.27;2.03;;;22.50;99.90;;;;;;6185133;23;20220;-90
2023/09/29 08:44:28;;;;;;;2.40;2.20;;;22.40;99.90;;;;;;6210344;23;20256;-91
2023/09/29 08:47:00;;;;;;;4.10;1.60;;;22.70;99.90;;;;;;6209551;23;20272;-89
2023/09/29 08:49:26;;;;;;;2.63;1.83;;;23.10;99.90;;;;;;6209726;23;20177;-89
2023/09/29 08:51:54;;;;;;;1.95;1.75;;;22.80;99.90;;;;;;6185280;23;20185;-90
2023/09/29 08:54:20;;;;;;;1.30;1.15;;;21.80;99.90;;;;;;6184514;23;20217;-92
2023/09/29 08:56:48;;;;;;;4.68;2.20;;;21.40;99.90;;;;;;6185702;23;20655;-90
2023/09/29 08:59:15;;;;;;;3.33;1.80;;;21.20;99.90;;;;;;6185313;23;20212;-93
2023/09/29 09:01:41;;;;;;;1.60;1.50;;;21.30;99.90;;;;;;6207688;23;20194;-92
2023/09/29 09:04:07;;;;;;;3.17;2.80;;;21.40;99.90;;;;;;6185175;23;20241;-92
2023/09/29 09:06:33;;;;;;;2.35;1.60;;;21.50;99.90;;;;;;6158998;23;20662;-92
2023/09/29 09:08:59;;;;;;;4.63;2.20;;;21.80;99.90;;;;;;6209578;23;20209;-92
2023/09/29 09:11:25;;;;;;;2.70;1.97;;;21.80;99.90;;;;;;6159732;23;20213;-90
2023/09/29 09:14:03;;;;;;;1.63;1.50;;;21.70;99.90;;;;;;6184008;23;20267;-92
2023/09/29 09:16:36;;;;;;;3.70;1.70;;;21.80;99.90;;;;;;6160884;23;20403;-90
2023/09/29 09:19:28;;;;;;;4.25;1.35;;;22.00;99.90;;;;;;6209980;23;20156;-90
2023/09/29 09:21:54;;;;;;;5.47;2.03;;;21.90;99.90;;;;;;6204837;23;20182;-92
2023/09/29 09:24:21;;;;;;;2.92;1.77;;;21.70;99.90;;;;;;6184237;23;20243;-93
2023/09/29 09:26:48;;;;;;;2.45;2.00;;;21.90;99.90;;;;;;6209310;23;20198;-95
2023/09/29 09:29:18;;;;;;;3.75;1.75;;;22.10;99.90;;;;;;6160424;23;20193;-94
2023/09/29 09:31:51;;;;;;;3.97;2.35;;;22.50;99.90;;;;;;6185303;23;20194;-94
2023/09/29 09:34:17;;;;;;;2.85;1.65;;;23.00;99.90;;;;;;6209421;23;20222;-91
2023/09/29 09:36:52;;;;;;;2.85;1.83;;;23.10;99.90;;;;;;6185820;23;20158;-91
2023/09/29 09:39:24;;;;;;;3.05;1.90;;;22.90;99.90;;;;;;6185136;23;20271;-94
2023/09/29 09:41:53;;;;;;;4.80;1.80;;;22.60;99.90;;;;;;6209708;23;20198;-92
2023/09/29 09:44:20;;;;;;;4.55;2.83;;;22.40;99.90;;;;;;6184921;23;20381;-93
2023/09/29 09:47:00;;;;;;;4.13;2.33;;;21.90;99.90;;;;;;6159700;23;20197;-93
2023/09/29 09:49:44;;;;;;;5.85;2.50;;;21.50;99.90;;;;;;6210069;23;21059;-93
2023/09/29 09:52:15;;;;;;;2.63;2.10;;;21.20;99.90;;;;;;6209588;23;20177;-92
2023/09/29 09:54:48;;;;;;;4.30;2.28;;;21.00;99.90;;;;;;6163112;23;20575;-95
2023/09/29 09:57:22;;;;;;;3.05;2.13;;;20.60;99.90;;;;;;6209361;23;20221;-95
2023/09/29 09:59:52;;;;;;;6.72;2.35;;;20.60;99.90;;;;;;6209699;23;20947;-95
2023/09/29 10:02:21;;;;;;;4.20;2.03;;;20.50;99.90;;;;;;6210092;23;20571;-93
2023/09/29 10:04:49;;;;;;;4.23;2.60;;;20.40;99.90;;;;;;6209836;23;20200;-94
2023/09/29 10:07:17;;;;;;;2.97;2.33;;;20.40;99.90;;;;;;6160577;23;20225;-93
2023/09/29 10:09:48;;;;;;;1.93;1.73;;;20.40;99.90;;;;;;6161341;23;20186;-94
2023/09/29 10:12:29;;;;;;;6.20;2.20;;;20.40;99.90;;;;;;6184787;23;20216;-92
2023/09/29 10:14:58;;;;;;;4.00;1.80;;;20.40;99.90;;;;;;6209298;23;20205;-94
2023/09/29 10:17:24;;;;;;;3.33;1.90;;;20.40;99.90;;;;;;6185521;23;20209;-92
2023/09/29 10:19:54;;;;;;;6.17;2.90;;;20.50;99.90;;;;;;6160479;23;20192;-92
2023/09/29 10:22:28;;;;;;;3.13;2.30;;;20.60;99.90;;;;;;6161589;23;20520;-95
2023/09/29 10:24:59;;;;;;;4.67;2.23;;;20.50;99.90;;;;;;6162368;23;20155;-90
2023/09/29 10:27:33;;;;;;;2.37;1.60;;;20.40;99.90;;;;;;6161450;23;20240;-93
2023/09/29 10:30:16;;;;;;;5.73;2.27;;;20.40;99.90;;;;;;6210123;23;20225;-94
2023/09/29 10:32:48;;;;;;;4.43;2.57;;;20.40;99.90;;;;;;6186381;23;20624;-94
2023/09/29 10:35:19;;;;;;;3.07;2.77;;;20.30;99.90;;;;;;6185313;23;20198;-94
2023/09/29 10:37:56;;;;;;;6.53;2.30;;;20.40;99.90;;;;;;6161252;23;20207;-95
2023/09/29 10:40:28;;;;;;;4.17;1.93;;;20.30;99.90;;;;;;6161330;23;20209;-91
2023/09/29 10:42:56;;;;;;;2.67;0.97;;;20.10;99.90;;;;;;6209759;23;20618;-92
2023/09/29 10:45:40;;;;;;;0.50;0.50;;;19.40;99.90;;;;;;6185526;23;20193;-91
2023/09/29 10:48:10;;;;;;;3.47;1.03;;;18.80;99.90;;;;;;6188112;23;20280;-90
2023/09/29 10:50:44;;;;;;;2.80;0.77;;;18.50;99.90;;;;;;6185647;23;20222;-91
2023/09/29 10:53:11;;;;;;;0.87;0.80;;;18.50;99.90;;;;;;6211852;23;20198;-94
2023/09/29 10:55:48;;;;;;;1.10;0.97;;;18.40;99.90;;;;;;6186692;23;20194;-93
2023/09/29 10:58:16;;;;;;;0.40;0.40;;;18.40;99.90;;;;;;6210652;23;20182;-92
2023/09/29 11:00:47;;;;;;;0.50;0.50;;;18.30;99.90;;;;;;6212344;23;20766;-91
2023/09/29 11:03:32;;;;;;;0.50;0.50;;;18.20;99.90;;;;;;6211538;23;20197;-93
2023/09/29 11:06:03;;;;;;;3.93;1.10;;;18.20;99.90;;;;;;6210896;23;20193;-93
2023/09/29 11:08:32;;;;;;;0.67;0.60;;;18.20;99.90;;;;;;6163742;23;20194;-90
2023/09/29 11:11:00;;;;;;;5.57;2.13;;;18.20;99.90;;;;;;6211260;23;20213;-91
2023/09/29 11:13:27;;;;;;;1.10;0.70;;;18.30;99.90;;;;;;6186749;23;20167;-94
2023/09/29 11:15:54;;;;;;;1.63;0.70;;;18.30;99.90;;;;;;6163135;23;20186;-93
2023/09/29 11:18:33;;;;;;;0.30;0.30;;;18.40;99.90;;;;;;6186258;23;20201;-92
2023/09/29 11:21:00;;;;;;;0.40;0.40;;;18.30;99.90;;;;;;6210857;23;20194;-92
2023/09/29 11:23:28;;;;;;;1.53;0.87;;;18.20;99.90;;;;;;6185998;23;20244;-90
2023/09/29 11:25:59;;;;;;;0.83;0.80;;;18.10;99.90;;;;;;6186730;23;20260;-92
2023/09/29 11:28:26;;;;;;;4.60;1.03;;;18.00;99.90;;;;;;6210332;23;20142;-93
2023/09/29 11:30:54;;;;;;;1.60;0.60;;;18.00;99.90;;;;;;6162132;23;20909;-91
2023/09/29 11:33:20;;;;;;;4.00;1.07;;;18.00;99.90;;;;;;6236384;23;20205;-92
2023/09/29 11:35:46;;;;;;;0.73;0.47;;;17.90;99.90;;;;;;6210441;23;20289;-92
2023/09/29 11:38:19;;;;;;;1.43;0.50;;;17.90;99.90;;;;;;6210637;23;20240;-94
2023/09/29 11:40:47;;;;;;;0.73;0.50;;;17.90;99.90;;;;;;6162255;23;20402;-91
2023/09/29 11:43:13;;;;;;;0.33;0.33;;;17.70;99.90;;;;;;6210397;23;20610;-91
2023/09/29 11:45:39;;;;;;;2.10;0.43;;;17.40;99.90;;;;;;6211488;23;20150;-91
2023/09/29 11:48:05;;;;;;;0.60;0.60;;;17.30;99.90;;;;;;6185549;23;20666;-94
2023/09/29 11:50:33;;;;;;;0.87;0.57;;;17.20;99.90;;;;;;6161418;23;20201;-90
2023/09/29 11:53:03;;;;;;;3.93;0.30;;;17.10;99.90;;;;;;6210506;23;20628;-92
2023/09/29 11:55:30;;;;;;;0.10;0.10;;;17.00;99.90;;;;;;6210907;23;21620;-91
2023/09/29 11:57:56;;;;;;;2.93;0.43;;;17.10;99.90;;;;;;6210763;23;20284;-89
2023/09/29 12:00:21;;;;;;;4.27;0.90;;;17.20;99.90;;;;;;6210546;23;20626;-90
2023/09/29 12:02:47;;;;;;;0.57;0.57;;;17.00;99.90;;;;;;6160311;23;20226;-91
2023/09/29 12:05:13;;;;;;;0.33;0.33;;;16.90;99.90;;;;;;6161048;23;20678;-93
2023/09/29 12:07:39;;;;;;;1.53;1.43;;;16.90;99.90;;;;;;6160418;23;20748;-94
2023/09/29 12:10:06;;;;;;;0.20;0.20;;;17.00;99.90;;;;;;6160538;23;20690;-92
2023/09/29 12:12:32;;;;;;;0.50;0.50;;;17.10;99.90;;;;;;6185758;23;20774;-92
2023/09/29 12:14:59;;;;;;;14.57;3.20;;;17.10;99.90;;;;;;6184991;23;20197;-93
2023/09/29 12:17:25;;;;;;;7.10;0.90;;;17.10;99.90;;;;;;6186064;23;20600;-94
2023/09/29 12:19:51;;;;;;;1.67;0.53;;;17.20;99.90;;;;;;6185800;23;20186;-92
2023/09/29 12:22:18;;;;;;;2.70;0.40;;;17.20;99.90;;;;;;6210907;23;20572;-93
2023/09/29 12:24:44;;;;;;;0.67;0.67;;;17.10;99.90;;;;;;6162084;23;20233;-94
2023/09/29 12:27:10;;;;;;;2.50;1.50;;;17.20;99.90;;;;;;6210692;23;20661;-94
2023/09/29 12:29:36;;;;;;;0.23;0.23;;;17.20;99.90;;;;;;6210788;23;20223;-93
2023/09/29 12:32:03;;;;;;;1.07;0.50;;;17.30;99.90;;;;;;6185413;23;20198;-93
2023/09/29 12:34:32;;;;;;;0.47;0.40;;;17.30;99.90;;;;;;6187069;23;20162;-92
2023/09/29 12:36:59;;;;;;;3.17;0.80;;;17.40;99.90;;;;;;6187918;23;20580;-91
2023/09/29 12:39:25;;;;;;;0.40;0.40;;;17.50;99.90;;;;;;6185989;23;20201;-92
2023/09/29 12:41:51;;;;;;;1.83;0.60;;;17.40;99.90;;;;;;6186510;23;20603;-92
2023/09/29 12:44:18;;;;;;;0.47;0.47;;;17.70;99.90;;;;;;6164368;23;20198;-94
2023/09/29 12:46:46;;;;;;;0.90;0.70;;;17.90;99.90;;;;;;6165733;23;20197;-94